Time;durP1;ratioP1;P1;durP2;ratioP2;P2;SDS_P1;SDS_P2;PMS_P1;PMS_P2;Temp;Humidity;BMP_temperature;BMP_pressure;BME280_temperature;BME280_humidity;BME280_pressure;Samples;Min_cycle;Max_cycle;Signal;HPM_P1;HPM_P2
2023/01/01 00:02:09;;;;;;;4.88;2.28;;;18.20;93.60;;;;;;4994563;28;20384;-87
2023/01/01 00:04:34;;;;;;;5.88;2.30;;;18.10;92.50;;;;;;5022088;28;20078;-87
2023/01/01 00:07:01;;;;;;;5.07;2.10;;;18.10;92.20;;;;;;5002258;28;20140;-88
2023/01/01 00:12:10;;;;;;;4.72;1.80;;;18.10;92.90;;;;;;5036520;28;20083;-87
2023/01/01 00:14:38;;;;;;;4.80;2.00;;;18.00;93.50;;;;;;4994794;28;20286;-89
2023/01/01 00:17:05;;;;;;;4.53;1.73;;;18.00;92.20;;;;;;4995634;28;20108;-89
2023/01/01 00:19:31;;;;;;;7.63;1.80;;;18.00;92.40;;;;;;5008537;28;20465;-89
2023/01/01 00:21:57;;;;;;;4.45;1.85;;;18.00;93.50;;;;;;5020765;28;20025;-88
2023/01/01 00:24:22;;;;;;;4.33;1.87;;;18.00;93.10;;;;;;4998552;28;20033;-89
2023/01/01 00:26:48;;;;;;;4.78;1.73;;;17.90;92.30;;;;;;5018435;28;20159;-87
2023/01/01 00:29:14;;;;;;;3.22;1.50;;;17.90;92.50;;;;;;5004975;28;20078;-88
2023/01/01 00:31:40;;;;;;;4.33;1.57;;;17.90;93.00;;;;;;5012276;28;20070;-87
2023/01/01 00:34:06;;;;;;;3.90;1.73;;;17.90;92.40;;;;;;4992416;28;20260;-88
2023/01/01 00:36:33;;;;;;;5.77;1.83;;;17.90;93.00;;;;;;4988076;28;20064;-89
2023/01/01 00:39:01;;;;;;;3.92;1.77;;;17.90;92.40;;;;;;5024900;28;20155;-87
2023/01/01 00:41:26;;;;;;;2.47;1.42;;;17.80;93.10;;;;;;5017378;28;20036;-89
2023/01/01 00:43:52;;;;;;;3.70;1.50;;;17.80;92.90;;;;;;5019767;28;20144;-88
2023/01/01 00:46:18;;;;;;;3.70;1.23;;;17.80;93.50;;;;;;4984238;28;20464;-87
2023/01/01 00:48:44;;;;;;;4.80;1.60;;;17.80;93.20;;;;;;4997371;28;20095;-87
2023/01/01 00:51:11;;;;;;;4.43;1.60;;;17.70;92.90;;;;;;5017610;28;20025;-87
2023/01/01 00:53:37;;;;;;;5.30;1.50;;;17.80;93.00;;;;;;4994508;28;20503;-87
2023/01/01 00:56:04;;;;;;;3.53;1.33;;;17.70;92.60;;;;;;4999495;28;20031;-85
2023/01/01 00:58:29;;;;;;;3.77;1.60;;;17.70;92.60;;;;;;4982644;28;20179;-87
2023/01/01 01:00:55;;;;;;;4.03;1.67;;;17.60;92.30;;;;;;4997702;28;20146;-88
2023/01/01 01:03:27;;;;;;;4.32;1.33;;;17.60;91.30;;;;;;5027642;28;20025;-85
2023/01/01 01:06:08;;;;;;;3.35;1.30;;;17.60;93.00;;;;;;5014484;28;20895;-90
2023/01/01 01:08:36;;;;;;;3.58;1.35;;;17.60;90.60;;;;;;4984912;28;20413;-88
2023/01/01 01:11:06;;;;;;;4.87;1.60;;;17.60;92.50;;;;;;5007206;28;20076;-88
2023/01/01 01:13:32;;;;;;;2.38;1.40;;;17.60;92.40;;;;;;5007064;28;23012;-87
2023/01/01 01:15:58;;;;;;;4.25;1.38;;;17.60;93.30;;;;;;5010067;28;20044;-90
2023/01/01 01:18:24;;;;;;;3.20;1.37;;;17.50;93.40;;;;;;4971705;28;20079;-87
2023/01/01 01:20:51;;;;;;;4.97;1.48;;;17.60;93.60;;;;;;4993348;28;20145;-87
2023/01/01 01:23:18;;;;;;;3.30;1.60;;;17.50;93.00;;;;;;5003109;28;20116;-86
2023/01/01 01:25:44;;;;;;;4.88;1.55;;;17.50;91.70;;;;;;4989054;28;20598;-86
2023/01/01 01:28:10;;;;;;;6.13;1.53;;;17.50;92.90;;;;;;4975467;28;20026;-88
2023/01/01 01:30:39;;;;;;;2.88;1.60;;;17.40;92.40;;;;;;4975775;28;20136;-90
2023/01/01 01:33:06;;;;;;;4.53;1.70;;;17.40;91.30;;;;;;4995650;28;20036;-89
2023/01/01 01:35:32;;;;;;;4.30;1.50;;;17.50;91.40;;;;;;5001672;28;20037;-88
2023/01/01 01:37:58;;;;;;;3.87;1.23;;;17.50;92.90;;;;;;5011031;28;20022;-88
2023/01/01 01:40:25;;;;;;;3.25;1.42;;;17.40;92.90;;;;;;4984727;28;20030;-85
2023/01/01 01:42:51;;;;;;;3.95;1.50;;;17.40;93.60;;;;;;5009107;28;20022;-85
2023/01/01 01:45:18;;;;;;;4.50;1.20;;;17.50;93.30;;;;;;5002590;28;20033;-89
2023/01/01 01:47:56;;;;;;;4.15;1.30;;;17.50;92.90;;;;;;4976001;28;20557;-88
2023/01/01 01:50:30;;;;;;;3.83;1.20;;;17.40;93.00;;;;;;4969459;28;20064;-89
2023/01/01 01:53:17;;;;;;;4.15;1.40;;;17.40;92.20;;;;;;4995507;28;20022;-88
2023/01/01 01:55:49;;;;;;;3.30;1.50;;;17.40;91.00;;;;;;4995448;28;20904;-89
2023/01/01 01:58:15;;;;;;;3.50;1.25;;;17.40;91.90;;;;;;4981702;28;20029;-86
2023/01/01 02:00:41;;;;;;;4.13;1.40;;;17.40;93.00;;;;;;4974859;28;20261;-88
2023/01/01 02:03:09;;;;;;;6.60;1.60;;;17.30;92.40;;;;;;4974691;28;20019;-88
2023/01/01 02:05:35;;;;;;;4.30;1.42;;;17.30;92.20;;;;;;5004155;28;20128;-87
2023/01/01 02:08:03;;;;;;;2.97;1.20;;;17.20;92.30;;;;;;5017060;28;20032;-88
2023/01/01 02:10:30;;;;;;;3.10;1.38;;;17.20;92.60;;;;;;4987716;28;20048;-88
2023/01/01 02:12:55;;;;;;;3.55;1.30;;;17.10;92.00;;;;;;5001523;28;20090;-87
2023/01/01 02:15:29;;;;;;;3.53;1.38;;;17.00;92.60;;;;;;5012724;28;20029;-88
2023/01/01 02:18:10;;;;;;;5.10;1.27;;;17.00;91.40;;;;;;4995155;28;20947;-87
2023/01/01 02:20:45;;;;;;;5.13;1.20;;;16.90;90.70;;;;;;4968240;28;20068;-89
2023/01/01 02:23:21;;;;;;;3.80;1.50;;;16.90;92.30;;;;;;5001368;28;20086;-86
2023/01/01 02:26:08;;;;;;;4.55;1.70;;;16.90;92.80;;;;;;5002969;28;20204;-87
2023/01/01 02:28:34;;;;;;;3.17;1.27;;;16.90;91.80;;;;;;5008129;28;20207;-87
2023/01/01 02:31:01;;;;;;;4.23;1.50;;;16.90;93.20;;;;;;5017867;28;20071;-88
2023/01/01 02:33:27;;;;;;;3.50;1.45;;;16.90;92.90;;;;;;4996057;28;20024;-88
2023/01/01 02:35:58;;;;;;;3.95;1.35;;;16.90;93.40;;;;;;5005843;28;20108;-87
2023/01/01 02:38:35;;;;;;;4.60;1.42;;;16.90;92.00;;;;;;4997118;28;20039;-88
2023/01/01 02:41:12;;;;;;;4.37;1.47;;;16.90;92.80;;;;;;5003198;28;20118;-89
2023/01/01 02:43:41;;;;;;;3.05;1.30;;;17.00;92.30;;;;;;4992260;28;20041;-88
2023/01/01 02:46:10;;;;;;;3.45;1.38;;;17.00;93.50;;;;;;5014692;28;20029;-89
2023/01/01 02:48:43;;;;;;;2.85;1.20;;;17.00;93.80;;;;;;5007627;28;21262;-87
2023/01/01 02:51:42;;;;;;;4.22;1.50;;;17.00;93.50;;;;;;5001429;28;20249;-88
2023/01/01 02:54:17;;;;;;;4.20;1.20;;;17.00;89.70;;;;;;5000910;28;20033;-87
2023/01/01 02:57:09;;;;;;;2.42;1.30;;;17.10;93.70;;;;;;5004673;28;20213;-89
2023/01/01 03:03:15;;;;;;;3.13;1.25;;;17.10;91.70;;;;;;5031016;28;20021;-89
2023/01/01 03:09:13;;;;;;;3.57;1.10;;;17.10;92.40;;;;;;5023286;28;20047;-87
2023/01/01 03:11:54;;;;;;;2.55;1.40;;;17.10;93.60;;;;;;4982554;28;20234;-87
2023/01/01 03:14:37;;;;;;;4.20;1.25;;;17.10;94.60;;;;;;5014473;28;20037;-88
2023/01/01 03:17:26;;;;;;;2.50;1.40;;;17.00;94.70;;;;;;5014472;28;20013;-86
2023/01/01 03:19:54;;;;;;;2.15;1.13;;;17.00;92.40;;;;;;4990004;28;20268;-91
2023/01/01 03:22:25;;;;;;;2.53;1.30;;;17.00;94.90;;;;;;5030634;28;20025;-88
2023/01/01 03:25:04;;;;;;;4.88;1.40;;;17.00;94.20;;;;;;4996333;28;20033;-88
2023/01/01 03:27:42;;;;;;;4.78;1.50;;;17.00;90.80;;;;;;4986838;28;20033;-88
2023/01/01 03:30:12;;;;;;;5.30;1.73;;;17.00;94.60;;;;;;5011738;28;20040;-87
2023/01/01 03:33:02;;;;;;;3.70;1.25;;;17.00;93.90;;;;;;4990901;28;20114;-87
2023/01/01 03:35:50;;;;;;;2.17;1.20;;;17.00;94.60;;;;;;4990377;28;20013;-88
2023/01/01 03:38:21;;;;;;;3.28;1.23;;;17.00;92.90;;;;;;5000366;28;20183;-89
2023/01/01 03:40:51;;;;;;;4.93;1.27;;;16.90;94.70;;;;;;5007153;28;20056;-87
2023/01/01 03:43:31;;;;;;;3.25;1.30;;;16.90;94.20;;;;;;5003046;28;20037;-88
2023/01/01 03:45:59;;;;;;;3.40;1.23;;;16.90;94.40;;;;;;5011459;28;20032;-89
2023/01/01 03:48:25;;;;;;;3.77;1.40;;;16.80;94.80;;;;;;4993303;28;20033;-89
2023/01/01 03:51:16;;;;;;;2.20;1.13;;;16.80;94.80;;;;;;4997065;28;20338;-88
2023/01/01 03:53:43;;;;;;;3.15;1.20;;;16.80;92.70;;;;;;5006630;28;20231;-89
2023/01/01 03:56:35;;;;;;;3.30;1.27;;;16.80;94.50;;;;;;4992637;28;20024;-89
2023/01/01 03:59:18;;;;;;;2.88;1.23;;;16.70;91.20;;;;;;5001601;28;20025;-88
2023/01/01 04:01:52;;;;;;;4.23;1.30;;;16.70;93.60;;;;;;4993338;28;20021;-88
2023/01/01 04:04:18;;;;;;;3.78;1.33;;;16.60;92.60;;;;;;5016681;28;20358;-88
2023/01/01 04:06:45;;;;;;;4.18;1.40;;;16.60;94.70;;;;;;4977323;28;20234;-87
2023/01/01 04:09:16;;;;;;;3.63;1.50;;;16.60;95.00;;;;;;5017114;28;20069;-87
2023/01/01 04:12:00;;;;;;;5.00;1.50;;;16.50;94.90;;;;;;4994867;28;20247;-89
2023/01/01 04:14:28;;;;;;;3.10;1.20;;;16.60;95.10;;;;;;4992975;28;20044;-87
2023/01/01 04:16:55;;;;;;;2.60;1.10;;;16.50;95.40;;;;;;4999774;28;20167;-88
2023/01/01 04:19:21;;;;;;;2.92;1.10;;;16.50;95.80;;;;;;5016562;28;20025;-85
2023/01/01 04:21:47;;;;;;;5.93;1.23;;;16.50;95.80;;;;;;4994290;28;20456;-89
2023/01/01 04:24:13;;;;;;;6.13;1.50;;;16.50;95.90;;;;;;5003774;28;20024;-89
2023/01/01 04:26:40;;;;;;;4.20;1.30;;;16.50;95.50;;;;;;4990181;28;20032;-88
2023/01/01 04:29:06;;;;;;;3.22;1.30;;;16.50;95.70;;;;;;5036981;28;20033;-88
2023/01/01 04:31:33;;;;;;;3.75;1.30;;;16.50;95.40;;;;;;4994737;28;20022;-88
2023/01/01 04:33:59;;;;;;;2.40;1.23;;;16.50;95.80;;;;;;5016739;28;20215;-89
2023/01/01 04:36:25;;;;;;;2.53;1.30;;;16.50;96.30;;;;;;5000715;28;20497;-87
2023/01/01 04:38:51;;;;;;;2.55;1.20;;;16.50;96.10;;;;;;4985788;28;21031;-89
2023/01/01 04:41:16;;;;;;;3.10;1.20;;;16.50;96.20;;;;;;4999165;28;20017;-88
2023/01/01 04:43:49;;;;;;;3.57;1.30;;;16.40;96.40;;;;;;4991541;28;20041;-87
2023/01/01 04:46:16;;;;;;;2.40;1.10;;;16.40;96.00;;;;;;5005525;28;20021;-88
2023/01/01 04:48:42;;;;;;;3.58;1.30;;;16.40;96.30;;;;;;4995237;28;20018;-87
2023/01/01 04:51:09;;;;;;;4.65;1.30;;;16.40;95.30;;;;;;5005696;28;20024;-88
2023/01/01 04:53:35;;;;;;;3.93;1.33;;;16.40;95.30;;;;;;4981151;28;20477;-87
2023/01/01 04:56:08;;;;;;;3.13;1.40;;;16.40;95.50;;;;;;5015825;28;20029;-89
2023/01/01 04:58:36;;;;;;;3.40;1.35;;;16.40;94.80;;;;;;5023567;28;20118;-88
2023/01/01 05:01:02;;;;;;;3.40;1.33;;;16.40;95.70;;;;;;4993421;28;20032;-88
2023/01/01 05:03:28;;;;;;;2.88;1.30;;;16.40;96.10;;;;;;5008058;28;20029;-88
2023/01/01 05:06:06;;;;;;;2.57;1.10;;;16.40;96.00;;;;;;4994847;28;20047;-88
2023/01/01 05:08:33;;;;;;;2.67;1.15;;;16.40;94.90;;;;;;4980703;28;20397;-88
2023/01/01 05:11:04;;;;;;;3.30;1.35;;;16.40;96.10;;;;;;5003312;28;20021;-88
2023/01/01 05:13:30;;;;;;;4.15;1.17;;;16.40;96.50;;;;;;5009382;28;20017;-88
2023/01/01 05:15:56;;;;;;;3.30;1.30;;;16.40;96.80;;;;;;5005033;28;20055;-88
2023/01/01 05:18:21;;;;;;;4.20;1.30;;;16.40;96.00;;;;;;5004995;28;20448;-86
2023/01/01 05:20:47;;;;;;;4.43;1.30;;;16.30;96.50;;;;;;4989174;28;20017;-88
2023/01/01 05:23:16;;;;;;;4.72;1.40;;;16.40;96.40;;;;;;5022728;28;20028;-89
2023/01/01 05:25:43;;;;;;;3.63;1.30;;;16.40;95.80;;;;;;4979132;28;20235;-87
2023/01/01 05:28:08;;;;;;;3.30;1.20;;;16.40;96.40;;;;;;4992763;28;20025;-87
2023/01/01 05:30:39;;;;;;;3.85;1.38;;;16.40;96.40;;;;;;5013346;28;20301;-88
2023/01/01 05:33:04;;;;;;;3.50;1.48;;;16.40;96.40;;;;;;5025084;28;20055;-88
2023/01/01 05:35:30;;;;;;;2.25;1.40;;;16.40;96.80;;;;;;5010872;28;20021;-90
2023/01/01 05:37:56;;;;;;;3.83;1.10;;;16.40;96.90;;;;;;5017755;28;20396;-87
2023/01/01 05:40:22;;;;;;;4.35;1.67;;;16.40;96.80;;;;;;4999256;28;20389;-88
2023/01/01 05:42:48;;;;;;;3.40;1.37;;;16.40;96.80;;;;;;5003438;28;20807;-87
2023/01/01 05:45:14;;;;;;;2.83;1.40;;;16.40;97.00;;;;;;5012871;28;20032;-87
2023/01/01 05:47:40;;;;;;;5.50;1.47;;;16.40;97.00;;;;;;5005372;28;23298;-86
2023/01/01 05:50:06;;;;;;;4.33;1.50;;;16.40;97.30;;;;;;5011884;28;20280;-87
2023/01/01 05:52:32;;;;;;;3.80;1.33;;;16.50;97.30;;;;;;5014160;28;20408;-89
2023/01/01 05:54:58;;;;;;;3.37;1.57;;;16.50;97.60;;;;;;4982088;28;20082;-87
2023/01/01 05:57:23;;;;;;;3.55;1.40;;;16.40;97.50;;;;;;5000565;28;20703;-89
2023/01/01 05:59:49;;;;;;;4.22;1.40;;;16.50;97.50;;;;;;4989499;28;20345;-87
2023/01/01 06:02:17;;;;;;;4.07;1.45;;;16.40;97.50;;;;;;5014338;28;20410;-87
2023/01/01 06:04:42;;;;;;;3.97;1.20;;;16.40;97.30;;;;;;5016996;28;20128;-88
2023/01/01 06:07:08;;;;;;;5.15;1.50;;;16.50;97.80;;;;;;5012211;28;20500;-87
2023/01/01 06:09:34;;;;;;;4.67;1.50;;;16.40;97.50;;;;;;4997033;28;20386;-88
2023/01/01 06:11:59;;;;;;;5.03;1.40;;;16.40;97.20;;;;;;4983424;28;20030;-88
2023/01/01 06:14:25;;;;;;;3.28;1.60;;;16.40;97.50;;;;;;5005798;28;20025;-87
2023/01/01 06:16:51;;;;;;;3.60;1.50;;;16.40;97.70;;;;;;5034202;28;20293;-86
2023/01/01 06:19:17;;;;;;;3.97;1.30;;;16.40;97.60;;;;;;4987759;28;20052;-87
2023/01/01 06:21:42;;;;;;;4.70;1.30;;;16.40;97.80;;;;;;5008176;28;20119;-88
2023/01/01 06:24:08;;;;;;;4.75;1.63;;;16.40;97.70;;;;;;5034345;28;20114;-87
2023/01/01 06:26:34;;;;;;;3.08;1.30;;;16.40;97.80;;;;;;4998936;28;20052;-86
2023/01/01 06:29:01;;;;;;;2.27;1.10;;;16.30;97.90;;;;;;5001647;28;20028;-88
2023/01/01 06:31:28;;;;;;;4.38;1.50;;;16.30;97.70;;;;;;5005312;28;20077;-88
2023/01/01 06:33:54;;;;;;;3.08;1.15;;;16.20;97.50;;;;;;5014848;28;20067;-88
2023/01/01 06:36:22;;;;;;;4.75;1.50;;;16.10;97.40;;;;;;4992172;28;20661;-87
2023/01/01 06:38:50;;;;;;;3.73;1.20;;;16.00;97.10;;;;;;4988671;28;20463;-88
2023/01/01 06:41:18;;;;;;;3.42;1.20;;;15.90;97.30;;;;;;5004970;28;20436;-88
2023/01/01 06:43:45;;;;;;;2.50;1.15;;;15.80;97.50;;;;;;4996148;28;20298;-87
2023/01/01 06:46:24;;;;;;;3.05;1.30;;;15.70;97.90;;;;;;5023677;28;20570;-87
2023/01/01 06:48:56;;;;;;;2.50;1.17;;;15.50;98.00;;;;;;5012928;28;20693;-88
2023/01/01 06:51:27;;;;;;;2.90;1.10;;;15.40;98.30;;;;;;5014188;28;20036;-87
2023/01/01 06:53:53;;;;;;;3.03;1.20;;;15.30;98.50;;;;;;4990983;28;20574;-88
2023/01/01 06:56:20;;;;;;;2.20;0.98;;;15.30;98.90;;;;;;5015013;28;20499;-88
2023/01/01 06:58:46;;;;;;;1.70;1.00;;;15.20;99.00;;;;;;4974701;28;21051;-88
2023/01/01 07:01:14;;;;;;;3.63;1.10;;;15.10;99.30;;;;;;5024120;28;20706;-88
2023/01/01 07:03:41;;;;;;;2.67;1.40;;;15.10;99.40;;;;;;5014408;28;20620;-88
2023/01/01 07:06:08;;;;;;;5.53;1.10;;;15.00;99.50;;;;;;5015794;28;20032;-88
2023/01/01 07:08:34;;;;;;;2.72;1.17;;;15.00;99.70;;;;;;4979197;28;20032;-88
2023/01/01 07:11:01;;;;;;;3.88;1.20;;;15.00;99.90;;;;;;4993874;28;20024;-88
2023/01/01 07:13:28;;;;;;;2.47;1.10;;;15.00;99.90;;;;;;4996265;28;20048;-88
2023/01/01 07:15:54;;;;;;;2.73;1.00;;;15.00;99.90;;;;;;5008344;28;20489;-88
2023/01/01 07:18:21;;;;;;;3.47;1.10;;;15.00;99.90;;;;;;5009403;28;20043;-88
2023/01/01 07:20:55;;;;;;;3.22;1.20;;;14.90;99.90;;;;;;4996829;28;20033;-89
2023/01/01 07:23:21;;;;;;;4.88;1.48;;;14.90;99.90;;;;;;5003939;28;20037;-88
2023/01/01 07:25:52;;;;;;;5.88;1.83;;;14.90;99.90;;;;;;5007087;28;20220;-89
2023/01/01 07:28:18;;;;;;;3.40;1.43;;;15.00;99.90;;;;;;5013372;28;20033;-88
2023/01/01 07:30:44;;;;;;;3.28;1.52;;;15.00;99.90;;;;;;4998945;28;20372;-88
2023/01/01 07:33:12;;;;;;;4.00;1.60;;;15.00;99.90;;;;;;4994328;28;20045;-87
2023/01/01 07:35:38;;;;;;;5.25;1.80;;;15.10;99.90;;;;;;5008457;28;20039;-88
2023/01/01 07:38:04;;;;;;;4.33;1.50;;;15.10;99.90;;;;;;4990376;28;20021;-89
2023/01/01 07:40:30;;;;;;;4.40;1.60;;;15.10;99.90;;;;;;4991745;28;20389;-88
2023/01/01 07:42:55;;;;;;;5.23;1.60;;;15.20;99.90;;;;;;4999201;28;20484;-88
2023/01/01 07:45:21;;;;;;;3.00;1.40;;;15.30;99.90;;;;;;4995986;28;20134;-89
2023/01/01 07:47:51;;;;;;;3.93;1.60;;;15.30;99.90;;;;;;4981482;28;20203;-89
2023/01/01 07:50:17;;;;;;;3.38;1.33;;;15.30;99.90;;;;;;5020846;28;20064;-89
2023/01/01 07:52:43;;;;;;;4.75;1.77;;;15.30;99.90;;;;;;5015298;28;20805;-90
2023/01/01 07:55:15;;;;;;;3.53;1.50;;;15.30;99.90;;;;;;5010109;28;20110;-88
2023/01/01 07:57:42;;;;;;;5.43;1.60;;;15.40;99.90;;;;;;5012803;28;20029;-91
2023/01/01 08:00:09;;;;;;;4.87;1.50;;;15.40;99.90;;;;;;4990578;28;20028;-88
2023/01/01 08:02:35;;;;;;;5.22;1.52;;;15.40;99.90;;;;;;4975348;28;20052;-89
2023/01/01 08:05:01;;;;;;;4.82;1.50;;;15.40;99.90;;;;;;4999834;28;20145;-90
2023/01/01 08:07:27;;;;;;;4.50;1.70;;;15.40;99.90;;;;;;5013807;28;20052;-89
2023/01/01 08:09:52;;;;;;;5.78;1.45;;;15.40;99.90;;;;;;4995297;28;20186;-88
2023/01/01 08:12:18;;;;;;;6.15;1.60;;;15.40;99.90;;;;;;5014383;28;20094;-89
2023/01/01 08:14:45;;;;;;;3.93;1.63;;;15.40;99.90;;;;;;5034809;28;20254;-90
2023/01/01 08:17:11;;;;;;;3.72;1.40;;;15.40;99.90;;;;;;4968915;28;20176;-90
2023/01/01 08:19:37;;;;;;;5.53;1.50;;;15.40;99.90;;;;;;5022264;28;20147;-89
2023/01/01 08:22:03;;;;;;;4.22;1.60;;;15.40;99.90;;;;;;5007106;28;20115;-87
2023/01/01 08:24:29;;;;;;;5.10;1.70;;;15.40;99.90;;;;;;5011966;28;20355;-88
2023/01/01 08:26:56;;;;;;;5.40;1.50;;;15.40;99.90;;;;;;5016848;28;20601;-89
2023/01/01 08:29:22;;;;;;;4.57;1.80;;;15.50;99.90;;;;;;5016042;28;20310;-89
2023/01/01 08:31:48;;;;;;;4.35;1.58;;;15.40;99.90;;;;;;4981693;28;20204;-89
2023/01/01 08:34:14;;;;;;;4.50;1.70;;;15.40;99.90;;;;;;5002563;28;20049;-88
2023/01/01 08:36:40;;;;;;;3.17;1.60;;;15.40;99.90;;;;;;4987355;28;20330;-88
2023/01/01 08:39:06;;;;;;;4.05;1.58;;;15.40;99.90;;;;;;5010012;28;20295;-89
2023/01/01 08:41:32;;;;;;;5.72;1.70;;;15.40;99.90;;;;;;5000304;28;20052;-89
2023/01/01 08:43:58;;;;;;;5.53;1.70;;;15.40;99.90;;;;;;5014518;28;20477;-87
2023/01/01 08:46:24;;;;;;;4.13;1.50;;;15.40;99.90;;;;;;4999200;28;20033;-90
2023/01/01 08:48:50;;;;;;;4.75;1.50;;;15.40;99.90;;;;;;5017073;28;20299;-89
2023/01/01 08:51:16;;;;;;;6.13;1.40;;;15.40;99.90;;;;;;4992378;28;20474;-88
2023/01/01 08:53:41;;;;;;;4.77;1.40;;;15.40;99.90;;;;;;4999145;28;20628;-88
2023/01/01 08:56:10;;;;;;;3.67;1.50;;;15.40;99.90;;;;;;4988252;28;20523;-88
2023/01/01 08:58:38;;;;;;;5.13;1.90;;;15.40;99.90;;;;;;5014859;28;20026;-88
2023/01/01 09:01:06;;;;;;;2.65;1.40;;;15.40;99.90;;;;;;4992610;28;20048;-87
2023/01/01 09:03:32;;;;;;;3.60;1.42;;;15.40;99.90;;;;;;5006636;28;20504;-88
2023/01/01 09:05:58;;;;;;;5.10;1.50;;;15.50;99.90;;;;;;4999828;28;20025;-89
2023/01/01 09:08:24;;;;;;;4.40;1.50;;;15.40;99.90;;;;;;5004925;28;20093;-87
2023/01/01 09:10:50;;;;;;;3.45;1.30;;;15.40;99.90;;;;;;4999693;28;20023;-89
2023/01/01 09:13:19;;;;;;;5.28;1.50;;;15.50;99.90;;;;;;5017725;28;20557;-90
2023/01/01 09:15:46;;;;;;;4.95;1.50;;;15.50;99.90;;;;;;5002792;28;20025;-89
2023/01/01 09:18:13;;;;;;;5.20;1.70;;;15.50;99.90;;;;;;4995602;28;20036;-88
2023/01/01 09:20:39;;;;;;;5.53;1.50;;;15.60;99.90;;;;;;5000248;28;20036;-89
2023/01/01 09:23:06;;;;;;;5.82;1.42;;;15.60;99.90;;;;;;4976868;28;20040;-90
2023/01/01 09:25:33;;;;;;;3.80;1.92;;;15.60;99.90;;;;;;5019154;28;20258;-88
2023/01/01 09:28:02;;;;;;;5.45;1.63;;;15.60;99.90;;;;;;4999561;28;20037;-88
2023/01/01 09:30:29;;;;;;;3.87;1.60;;;15.70;99.90;;;;;;5009643;28;20132;-88
2023/01/01 09:32:54;;;;;;;3.83;1.52;;;15.70;99.90;;;;;;4980355;28;20074;-88
2023/01/01 09:35:20;;;;;;;4.53;1.50;;;15.80;99.90;;;;;;5030466;28;20709;-88
2023/01/01 09:37:47;;;;;;;4.40;1.58;;;15.80;99.90;;;;;;4992521;28;20473;-89
2023/01/01 09:40:46;;;;;;;6.27;1.67;;;15.90;99.90;;;;;;4999410;28;20231;-90
2023/01/01 09:43:24;;;;;;;3.58;1.50;;;15.90;99.30;;;;;;5003218;28;20698;-88
2023/01/01 09:46:10;;;;;;;5.78;1.50;;;15.90;99.40;;;;;;5016931;28;20029;-88
2023/01/01 09:48:48;;;;;;;3.88;1.20;;;16.00;99.90;;;;;;4999357;28;20021;-88
2023/01/01 09:51:17;;;;;;;4.72;1.60;;;16.00;99.90;;;;;;5034006;28;20250;-88
2023/01/01 09:53:52;;;;;;;4.57;1.80;;;16.10;99.90;;;;;;4993997;28;20025;-87
2023/01/01 09:56:26;;;;;;;5.22;1.80;;;16.00;99.90;;;;;;5011411;28;20017;-87
2023/01/01 09:58:54;;;;;;;4.72;1.52;;;16.00;99.90;;;;;;5025461;28;20033;-87
2023/01/01 10:01:37;;;;;;;5.05;1.75;;;16.10;99.90;;;;;;5006061;28;20104;-87
2023/01/01 10:04:31;;;;;;;4.22;1.27;;;16.10;99.80;;;;;;4996036;28;20045;-90
2023/01/01 10:07:20;;;;;;;3.53;1.43;;;16.10;99.90;;;;;;5012619;28;20025;-89
2023/01/01 10:10:07;;;;;;;4.28;1.63;;;16.10;99.40;;;;;;4996340;28;20063;-89
2023/01/01 10:12:51;;;;;;;5.60;1.90;;;16.10;98.00;;;;;;5031944;28;20519;-87
2023/01/01 10:15:23;;;;;;;7.78;2.10;;;16.10;99.50;;;;;;4981129;28;20135;-88
2023/01/01 10:17:55;;;;;;;5.35;1.50;;;16.10;99.90;;;;;;5032393;28;20056;-88
2023/01/01 10:20:43;;;;;;;3.97;1.50;;;16.10;99.90;;;;;;4998225;28;20225;-88
2023/01/01 10:23:21;;;;;;;4.60;1.50;;;16.20;99.50;;;;;;5009326;28;20048;-89
2023/01/01 10:25:47;;;;;;;3.35;1.13;;;16.20;99.90;;;;;;5033637;28;20033;-87
2023/01/01 10:28:12;;;;;;;3.57;1.50;;;16.20;99.90;;;;;;5012672;28;20102;-89
2023/01/01 10:30:41;;;;;;;4.45;1.40;;;16.20;99.90;;;;;;5005970;28;20018;-88
2023/01/01 10:33:13;;;;;;;2.60;1.20;;;16.30;99.90;;;;;;4989856;28;20040;-89
2023/01/01 10:35:58;;;;;;;2.47;1.20;;;16.30;99.90;;;;;;5017729;28;20021;-88
2023/01/01 10:38:25;;;;;;;3.33;1.35;;;16.40;99.70;;;;;;4987923;28;20056;-89
2023/01/01 10:41:08;;;;;;;4.30;1.50;;;16.40;99.90;;;;;;5009419;28;20306;-88
2023/01/01 10:43:34;;;;;;;4.22;1.33;;;16.50;99.90;;;;;;4999642;28;20072;-89
2023/01/01 10:46:01;;;;;;;3.63;1.10;;;16.60;99.90;;;;;;5008662;28;20148;-87
2023/01/01 10:48:32;;;;;;;2.40;1.00;;;16.70;99.90;;;;;;5002769;28;20063;-88
2023/01/01 10:51:12;;;;;;;5.97;1.65;;;16.80;99.90;;;;;;5010003;28;20100;-89
2023/01/01 10:53:41;;;;;;;3.83;1.30;;;16.90;99.90;;;;;;5004928;28;21075;-87
2023/01/01 10:56:14;;;;;;;3.50;1.23;;;17.00;99.90;;;;;;5001599;28;20021;-90
2023/01/01 10:58:40;;;;;;;3.58;1.10;;;17.10;99.90;;;;;;5007744;28;20025;-87
2023/01/01 11:01:09;;;;;;;5.57;1.40;;;17.10;99.90;;;;;;5022377;28;20056;-87
2023/01/01 11:03:36;;;;;;;5.07;1.20;;;17.20;99.90;;;;;;4991930;28;20031;-87
2023/01/01 11:06:03;;;;;;;6.25;1.35;;;17.30;99.90;;;;;;4999720;28;20037;-87
2023/01/01 11:08:32;;;;;;;4.78;1.52;;;17.40;99.90;;;;;;5014719;28;20029;-89
2023/01/01 11:11:00;;;;;;;4.28;1.25;;;17.50;99.90;;;;;;5010689;28;20021;-88
2023/01/01 11:13:27;;;;;;;5.75;1.30;;;17.60;99.90;;;;;;5016157;28;20029;-86
2023/01/01 11:15:54;;;;;;;4.57;1.20;;;17.70;99.90;;;;;;5003257;28;20770;-87
2023/01/01 11:18:34;;;;;;;4.22;1.27;;;17.70;99.90;;;;;;5015443;28;20051;-89
2023/01/01 11:21:02;;;;;;;4.35;1.17;;;17.80;99.90;;;;;;4991989;28;20028;-87
2023/01/01 11:23:36;;;;;;;3.70;1.20;;;17.80;99.90;;;;;;5016972;28;20031;-87
2023/01/01 11:26:25;;;;;;;4.68;1.20;;;17.80;99.90;;;;;;4994302;28;20061;-87
2023/01/01 11:29:01;;;;;;;3.23;1.20;;;17.80;98.50;;;;;;5000996;28;20013;-88
2023/01/01 11:31:37;;;;;;;5.60;1.30;;;17.80;99.00;;;;;;5027901;28;20017;-88
2023/01/01 11:34:11;;;;;;;4.53;1.10;;;17.80;98.50;;;;;;5011241;28;20021;-87
2023/01/01 11:36:37;;;;;;;4.65;1.33;;;17.80;99.80;;;;;;4997867;28;20025;-87
2023/01/01 11:39:20;;;;;;;4.97;1.30;;;17.80;99.40;;;;;;5016546;28;23274;-87
2023/01/01 11:41:49;;;;;;;3.50;1.20;;;17.70;97.40;;;;;;5002359;28;20291;-87
2023/01/01 11:44:33;;;;;;;4.07;1.38;;;17.60;98.80;;;;;;5031725;28;20081;-87
2023/01/01 11:46:59;;;;;;;5.93;1.40;;;17.60;97.70;;;;;;5008720;28;20052;-87
2023/01/01 11:49:27;;;;;;;3.00;1.05;;;17.50;99.30;;;;;;4997199;28;20041;-87
2023/01/01 11:51:53;;;;;;;4.82;1.10;;;17.50;99.20;;;;;;4982175;28;20049;-90
2023/01/01 11:54:32;;;;;;;4.97;1.30;;;17.40;99.10;;;;;;5019944;28;20320;-89
2023/01/01 11:57:22;;;;;;;4.32;1.33;;;17.40;96.10;;;;;;5008076;28;20147;-88
2023/01/01 12:00:00;;;;;;;4.63;1.20;;;17.30;97.20;;;;;;5002544;28;20112;-88
2023/01/01 12:02:37;;;;;;;3.08;0.98;;;17.20;98.40;;;;;;5015539;28;20028;-87
2023/01/01 12:05:24;;;;;;;5.70;1.20;;;17.20;98.00;;;;;;5004284;28;20258;-89
2023/01/01 12:07:51;;;;;;;2.92;0.90;;;17.20;97.60;;;;;;5015937;28;20088;-89
2023/01/01 12:10:23;;;;;;;4.55;1.10;;;17.10;99.40;;;;;;5008738;28;20121;-88
2023/01/01 12:13:06;;;;;;;4.07;1.00;;;17.10;99.30;;;;;;5018012;28;20063;-87
2023/01/01 12:15:45;;;;;;;4.03;0.95;;;17.20;98.40;;;;;;5013085;28;20025;-88
2023/01/01 12:18:40;;;;;;;4.27;1.00;;;17.20;99.10;;;;;;5034060;28;20242;-88
2023/01/01 12:21:26;;;;;;;3.70;1.00;;;17.30;97.90;;;;;;4979756;28;20325;-89
2023/01/01 12:23:54;;;;;;;4.00;1.10;;;17.30;98.30;;;;;;5010850;28;20593;-87
2023/01/01 12:26:56;;;;;;;4.78;1.45;;;17.30;99.60;;;;;;4992345;28;20037;-87
2023/01/01 12:29:36;;;;;;;4.70;1.33;;;17.20;98.00;;;;;;5016467;28;20127;-88
2023/01/01 12:32:21;;;;;;;3.83;1.10;;;17.20;98.00;;;;;;5018541;28;20029;-87
2023/01/01 12:35:07;;;;;;;4.68;1.27;;;17.20;98.50;;;;;;5015635;28;20044;-88
2023/01/01 12:37:45;;;;;;;4.50;1.15;;;17.10;98.20;;;;;;4992861;28;20675;-87
2023/01/01 12:40:34;;;;;;;3.65;1.20;;;17.00;98.20;;;;;;4998532;28;20029;-88
2023/01/01 12:43:11;;;;;;;4.30;1.17;;;16.90;96.80;;;;;;5005301;28;20546;-86
2023/01/01 12:45:58;;;;;;;4.43;1.23;;;16.80;98.60;;;;;;5001949;28;20020;-88
2023/01/01 12:48:43;;;;;;;5.00;1.23;;;16.80;98.40;;;;;;5004282;28;20021;-88
2023/01/01 12:51:26;;;;;;;4.32;1.10;;;16.70;97.30;;;;;;4988760;28;20685;-87
2023/01/01 12:54:06;;;;;;;4.30;1.10;;;16.70;97.70;;;;;;5014470;28;20159;-88
2023/01/01 12:56:46;;;;;;;4.70;1.33;;;16.70;97.20;;;;;;5004890;28;20824;-88
2023/01/01 12:59:18;;;;;;;4.17;1.40;;;16.60;97.50;;;;;;5014011;28;20036;-87
2023/01/01 13:01:44;;;;;;;4.53;1.20;;;16.60;99.00;;;;;;5001930;28;20037;-87
2023/01/01 13:04:18;;;;;;;4.78;1.40;;;16.60;99.40;;;;;;5012957;28;20104;-87
2023/01/01 13:06:47;;;;;;;4.35;1.20;;;16.60;99.00;;;;;;5005553;28;20025;-86
2023/01/01 13:09:25;;;;;;;5.50;1.20;;;16.60;98.40;;;;;;4994618;28;20056;-88
2023/01/01 13:11:58;;;;;;;3.47;1.30;;;16.60;98.00;;;;;;5004055;28;20510;-87
2023/01/01 13:14:24;;;;;;;3.67;1.10;;;16.60;99.00;;;;;;5012938;28;20029;-87
2023/01/01 13:16:56;;;;;;;4.53;1.10;;;16.60;99.90;;;;;;4998304;28;20050;-89